sensor_id;sensor_type;location;lat;lon;timestamp;P1;durP1;ratioP1;P2;durP2;ratioP2
59127;SDS011;44912;52.754;5.994;2023-09-18T00:01:52;48.17;;;22.58;;
59127;SDS011;44912;52.754;5.994;2023-09-18T00:04:18;26.77;;;21.38;;
59127;SDS011;44912;52.754;5.994;2023-09-18T00:06:43;24.42;;;21.83;;
59127;SDS011;44912;52.754;5.994;2023-09-18T00:09:09;24.33;;;21.73;;
59127;SDS011;44912;52.754;5.994;2023-09-18T00:11:38;29.13;;;23.75;;
59127;SDS011;44912;52.754;5.994;2023-09-18T00:14:04;48.47;;;27.35;;
59127;SDS011;44912;52.754;5.994;2023-09-18T00:16:29;29.27;;;24.88;;
59127;SDS011;44912;52.754;5.994;2023-09-18T00:18:55;31.58;;;25.98;;
59127;SDS011;44912;52.754;5.994;2023-09-18T00:21:21;28.85;;;23.45;;
59127;SDS011;44912;52.754;5.994;2023-09-18T00:23:46;36.35;;;25.58;;
59127;SDS011;44912;52.754;5.994;2023-09-18T00:26:15;37.63;;;26.20;;
59127;SDS011;44912;52.754;5.994;2023-09-18T00:28:41;28.85;;;22.80;;
59127;SDS011;44912;52.754;5.994;2023-09-18T00:31:06;30.67;;;25.27;;
59127;SDS011;44912;52.754;5.994;2023-09-18T00:33:32;28.20;;;24.25;;
59127;SDS011;44912;52.754;5.994;2023-09-18T00:35:57;31.90;;;25.77;;
59127;SDS011;44912;52.754;5.994;2023-09-18T00:38:23;30.95;;;26.73;;
59127;SDS011;44912;52.754;5.994;2023-09-18T00:40:48;34.50;;;27.60;;
59127;SDS011;44912;52.754;5.994;2023-09-18T00:43:14;33.92;;;27.92;;
59127;SDS011;44912;52.754;5.994;2023-09-18T00:45:41;34.10;;;27.50;;
59127;SDS011;44912;52.754;5.994;2023-09-18T00:48:09;36.00;;;27.13;;
59127;SDS011;44912;52.754;5.994;2023-09-18T00:50:34;32.00;;;26.52;;
59127;SDS011;44912;52.754;5.994;2023-09-18T00:53:01;33.10;;;27.95;;
59127;SDS011;44912;52.754;5.994;2023-09-18T00:55:27;33.88;;;28.83;;
59127;SDS011;44912;52.754;5.994;2023-09-18T00:57:55;34.70;;;27.92;;
59127;SDS011;44912;52.754;5.994;2023-09-18T01:00:21;32.95;;;27.30;;
59127;SDS011;44912;52.754;5.994;2023-09-18T01:02:47;32.70;;;26.73;;
59127;SDS011;44912;52.754;5.994;2023-09-18T01:05:13;29.50;;;26.30;;
59127;SDS011;44912;52.754;5.994;2023-09-18T01:07:41;28.38;;;25.25;;
59127;SDS011;44912;52.754;5.994;2023-09-18T01:10:07;30.08;;;25.73;;
59127;SDS011;44912;52.754;5.994;2023-09-18T01:12:39;34.33;;;26.88;;
59127;SDS011;44912;52.754;5.994;2023-09-18T01:17:42;30.65;;;26.00;;
59127;SDS011;44912;52.754;5.994;2023-09-18T01:20:09;32.72;;;26.50;;
59127;SDS011;44912;52.754;5.994;2023-09-18T01:22:35;32.22;;;26.42;;
59127;SDS011;44912;52.754;5.994;2023-09-18T01:25:01;36.35;;;28.35;;
59127;SDS011;44912;52.754;5.994;2023-09-18T01:27:27;33.70;;;27.23;;
59127;SDS011;44912;52.754;5.994;2023-09-18T01:29:53;31.20;;;26.83;;
59127;SDS011;44912;52.754;5.994;2023-09-18T01:32:19;28.83;;;25.52;;
59127;SDS011;44912;52.754;5.994;2023-09-18T01:34:47;28.80;;;24.15;;
59127;SDS011;44912;52.754;5.994;2023-09-18T01:37:14;28.13;;;24.02;;
59127;SDS011;44912;52.754;5.994;2023-09-18T01:39:42;32.15;;;26.85;;
59127;SDS011;44912;52.754;5.994;2023-09-18T01:42:09;31.40;;;26.15;;
59127;SDS011;44912;52.754;5.994;2023-09-18T01:44:35;32.95;;;26.27;;
59127;SDS011;44912;52.754;5.994;2023-09-18T01:47:06;30.25;;;25.15;;
59127;SDS011;44912;52.754;5.994;2023-09-18T01:49:38;32.88;;;26.20;;
59127;SDS011;44912;52.754;5.994;2023-09-18T01:52:05;30.17;;;25.92;;
59127;SDS011;44912;52.754;5.994;2023-09-18T01:54:32;28.85;;;25.17;;
59127;SDS011;44912;52.754;5.994;2023-09-18T01:56:58;27.50;;;24.23;;
59127;SDS011;44912;52.754;5.994;2023-09-18T01:59:24;32.25;;;27.20;;
59127;SDS011;44912;52.754;5.994;2023-09-18T02:01:50;31.17;;;26.83;;
59127;SDS011;44912;52.754;5.994;2023-09-18T02:04:17;27.75;;;24.45;;
59127;SDS011;44912;52.754;5.994;2023-09-18T02:06:43;28.25;;;25.05;;
59127;SDS011;44912;52.754;5.994;2023-09-18T02:09:09;32.47;;;26.05;;
59127;SDS011;44912;52.754;5.994;2023-09-18T02:11:39;30.98;;;26.65;;
59127;SDS011;44912;52.754;5.994;2023-09-18T02:14:06;30.50;;;25.77;;
59127;SDS011;44912;52.754;5.994;2023-09-18T02:16:34;28.77;;;25.08;;
59127;SDS011;44912;52.754;5.994;2023-09-18T02:19:01;28.77;;;25.05;;
59127;SDS011;44912;52.754;5.994;2023-09-18T02:21:27;31.25;;;25.58;;
59127;SDS011;44912;52.754;5.994;2023-09-18T02:23:53;31.60;;;25.45;;
59127;SDS011;44912;52.754;5.994;2023-09-18T02:26:20;29.55;;;25.77;;
59127;SDS011;44912;52.754;5.994;2023-09-18T02:28:46;28.33;;;24.60;;
59127;SDS011;44912;52.754;5.994;2023-09-18T02:31:12;27.90;;;24.80;;
59127;SDS011;44912;52.754;5.994;2023-09-18T02:33:38;32.00;;;25.45;;
59127;SDS011;44912;52.754;5.994;2023-09-18T02:36:04;28.58;;;23.33;;
59127;SDS011;44912;52.754;5.994;2023-09-18T02:38:30;28.65;;;24.38;;
59127;SDS011;44912;52.754;5.994;2023-09-18T02:40:56;30.30;;;25.17;;
59127;SDS011;44912;52.754;5.994;2023-09-18T02:43:22;29.00;;;25.45;;
59127;SDS011;44912;52.754;5.994;2023-09-18T02:45:48;29.15;;;24.38;;
59127;SDS011;44912;52.754;5.994;2023-09-18T02:48:14;28.27;;;24.90;;
59127;SDS011;44912;52.754;5.994;2023-09-18T02:50:40;27.10;;;24.05;;
59127;SDS011;44912;52.754;5.994;2023-09-18T02:53:06;29.73;;;24.92;;
59127;SDS011;44912;52.754;5.994;2023-09-18T02:55:33;28.10;;;23.40;;
59127;SDS011;44912;52.754;5.994;2023-09-18T02:57:59;26.65;;;23.73;;
59127;SDS011;44912;52.754;5.994;2023-09-18T03:00:25;29.65;;;25.00;;
59127;SDS011;44912;52.754;5.994;2023-09-18T03:02:50;28.45;;;24.85;;
59127;SDS011;44912;52.754;5.994;2023-09-18T03:05:16;26.73;;;23.85;;
59127;SDS011;44912;52.754;5.994;2023-09-18T03:07:41;28.60;;;25.50;;
59127;SDS011;44912;52.754;5.994;2023-09-18T03:10:07;30.13;;;24.58;;
59127;SDS011;44912;52.754;5.994;2023-09-18T03:12:34;27.17;;;22.98;;
59127;SDS011;44912;52.754;5.994;2023-09-18T03:14:59;27.60;;;23.65;;
59127;SDS011;44912;52.754;5.994;2023-09-18T03:17:25;28.98;;;24.08;;
59127;SDS011;44912;52.754;5.994;2023-09-18T03:19:51;28.13;;;22.75;;
59127;SDS011;44912;52.754;5.994;2023-09-18T03:22:17;30.10;;;24.63;;
59127;SDS011;44912;52.754;5.994;2023-09-18T03:24:42;28.58;;;23.90;;
59127;SDS011;44912;52.754;5.994;2023-09-18T03:27:08;30.30;;;23.33;;
59127;SDS011;44912;52.754;5.994;2023-09-18T03:29:33;29.35;;;23.95;;
59127;SDS011;44912;52.754;5.994;2023-09-18T03:31:59;30.65;;;25.02;;
59127;SDS011;44912;52.754;5.994;2023-09-18T03:34:25;31.27;;;25.60;;
59127;SDS011;44912;52.754;5.994;2023-09-18T03:36:52;27.17;;;24.17;;
59127;SDS011;44912;52.754;5.994;2023-09-18T03:39:18;27.25;;;24.25;;
59127;SDS011;44912;52.754;5.994;2023-09-18T03:41:43;29.42;;;24.40;;
59127;SDS011;44912;52.754;5.994;2023-09-18T03:44:09;29.17;;;24.52;;
59127;SDS011;44912;52.754;5.994;2023-09-18T03:46:35;29.13;;;24.55;;
59127;SDS011;44912;52.754;5.994;2023-09-18T03:49:01;30.85;;;23.20;;
59127;SDS011;44912;52.754;5.994;2023-09-18T03:51:28;28.17;;;24.10;;
59127;SDS011;44912;52.754;5.994;2023-09-18T03:53:54;27.27;;;23.70;;
59127;SDS011;44912;52.754;5.994;2023-09-18T03:56:20;29.20;;;24.25;;
59127;SDS011;44912;52.754;5.994;2023-09-18T03:58:47;26.58;;;23.38;;
59127;SDS011;44912;52.754;5.994;2023-09-18T04:01:14;27.80;;;22.35;;
59127;SDS011;44912;52.754;5.994;2023-09-18T04:03:40;26.10;;;22.17;;
59127;SDS011;44912;52.754;5.994;2023-09-18T04:06:06;26.20;;;22.77;;
59127;SDS011;44912;52.754;5.994;2023-09-18T04:08:32;24.98;;;20.90;;
59127;SDS011;44912;52.754;5.994;2023-09-18T04:10:57;26.42;;;21.83;;
59127;SDS011;44912;52.754;5.994;2023-09-18T04:13:23;28.65;;;22.88;;
59127;SDS011;44912;52.754;5.994;2023-09-18T04:15:49;28.02;;;22.20;;
59127;SDS011;44912;52.754;5.994;2023-09-18T04:18:15;29.45;;;22.75;;
59127;SDS011;44912;52.754;5.994;2023-09-18T04:20:40;24.98;;;21.55;;
59127;SDS011;44912;52.754;5.994;2023-09-18T04:23:22;25.25;;;21.50;;
59127;SDS011;44912;52.754;5.994;2023-09-18T04:25:49;24.30;;;21.08;;
59127;SDS011;44912;52.754;5.994;2023-09-18T04:28:16;22.75;;;20.33;;
59127;SDS011;44912;52.754;5.994;2023-09-18T04:30:44;25.33;;;20.60;;
59127;SDS011;44912;52.754;5.994;2023-09-18T04:33:10;22.80;;;19.92;;
59127;SDS011;44912;52.754;5.994;2023-09-18T04:35:37;21.98;;;19.08;;
59127;SDS011;44912;52.754;5.994;2023-09-18T04:38:04;21.15;;;18.25;;
59127;SDS011;44912;52.754;5.994;2023-09-18T04:40:31;23.00;;;19.08;;
59127;SDS011;44912;52.754;5.994;2023-09-18T04:43:00;22.83;;;18.65;;
59127;SDS011;44912;52.754;5.994;2023-09-18T04:45:26;22.13;;;18.90;;
59127;SDS011;44912;52.754;5.994;2023-09-18T04:47:52;26.13;;;20.65;;
59127;SDS011;44912;52.754;5.994;2023-09-18T04:50:18;22.77;;;19.10;;
59127;SDS011;44912;52.754;5.994;2023-09-18T04:52:44;22.88;;;18.58;;
59127;SDS011;44912;52.754;5.994;2023-09-18T04:55:10;22.80;;;20.48;;
59127;SDS011;44912;52.754;5.994;2023-09-18T04:57:36;23.38;;;19.40;;
59127;SDS011;44912;52.754;5.994;2023-09-18T05:00:02;28.08;;;19.48;;
59127;SDS011;44912;52.754;5.994;2023-09-18T05:02:32;23.73;;;18.88;;
59127;SDS011;44912;52.754;5.994;2023-09-18T05:04:59;23.27;;;19.55;;
59127;SDS011;44912;52.754;5.994;2023-09-18T05:07:25;19.23;;;16.92;;
59127;SDS011;44912;52.754;5.994;2023-09-18T05:09:50;22.98;;;18.38;;
59127;SDS011;44912;52.754;5.994;2023-09-18T05:12:16;21.92;;;18.77;;
59127;SDS011;44912;52.754;5.994;2023-09-18T05:14:42;24.10;;;19.00;;
59127;SDS011;44912;52.754;5.994;2023-09-18T05:17:13;24.73;;;19.50;;
59127;SDS011;44912;52.754;5.994;2023-09-18T05:19:40;23.05;;;18.88;;
59127;SDS011;44912;52.754;5.994;2023-09-18T05:22:06;22.38;;;18.67;;
59127;SDS011;44912;52.754;5.994;2023-09-18T05:24:33;24.25;;;19.83;;
59127;SDS011;44912;52.754;5.994;2023-09-18T05:26:58;23.20;;;19.73;;
59127;SDS011;44912;52.754;5.994;2023-09-18T05:29:24;25.23;;;20.27;;
59127;SDS011;44912;52.754;5.994;2023-09-18T05:31:49;23.20;;;19.10;;
59127;SDS011;44912;52.754;5.994;2023-09-18T05:34:15;23.67;;;19.63;;
59127;SDS011;44912;52.754;5.994;2023-09-18T05:36:40;25.50;;;19.38;;
59127;SDS011;44912;52.754;5.994;2023-09-18T05:39:06;22.60;;;19.50;;
59127;SDS011;44912;52.754;5.994;2023-09-18T05:41:38;21.30;;;18.55;;
59127;SDS011;44912;52.754;5.994;2023-09-18T05:44:04;26.35;;;19.08;;
59127;SDS011;44912;52.754;5.994;2023-09-18T05:46:32;23.27;;;18.50;;
59127;SDS011;44912;52.754;5.994;2023-09-18T05:48:59;23.85;;;18.65;;
59127;SDS011;44912;52.754;5.994;2023-09-18T05:51:25;23.45;;;18.20;;
59127;SDS011;44912;52.754;5.994;2023-09-18T05:53:51;23.42;;;18.48;;
59127;SDS011;44912;52.754;5.994;2023-09-18T05:56:16;21.58;;;19.17;;
59127;SDS011;44912;52.754;5.994;2023-09-18T05:58:42;22.38;;;18.60;;
59127;SDS011;44912;52.754;5.994;2023-09-18T06:01:08;25.67;;;19.60;;
59127;SDS011;44912;52.754;5.994;2023-09-18T06:03:34;24.85;;;19.10;;
59127;SDS011;44912;52.754;5.994;2023-09-18T06:06:03;26.25;;;19.90;;
59127;SDS011;44912;52.754;5.994;2023-09-18T06:08:29;24.88;;;19.10;;
59127;SDS011;44912;52.754;5.994;2023-09-18T06:10:56;26.55;;;19.95;;
59127;SDS011;44912;52.754;5.994;2023-09-18T06:13:23;22.13;;;18.52;;
59127;SDS011;44912;52.754;5.994;2023-09-18T06:15:50;24.67;;;20.25;;
59127;SDS011;44912;52.754;5.994;2023-09-18T06:18:17;27.60;;;19.38;;
59127;SDS011;44912;52.754;5.994;2023-09-18T06:20:45;24.90;;;19.15;;
59127;SDS011;44912;52.754;5.994;2023-09-18T06:23:11;25.70;;;19.70;;
59127;SDS011;44912;52.754;5.994;2023-09-18T06:25:37;23.02;;;18.10;;
59127;SDS011;44912;52.754;5.994;2023-09-18T06:28:04;21.45;;;18.63;;
59127;SDS011;44912;52.754;5.994;2023-09-18T06:30:29;24.95;;;19.23;;
59127;SDS011;44912;52.754;5.994;2023-09-18T06:32:59;20.20;;;16.83;;
59127;SDS011;44912;52.754;5.994;2023-09-18T06:35:26;23.45;;;17.73;;
59127;SDS011;44912;52.754;5.994;2023-09-18T06:37:51;22.73;;;17.33;;
59127;SDS011;44912;52.754;5.994;2023-09-18T06:40:19;21.05;;;16.30;;
59127;SDS011;44912;52.754;5.994;2023-09-18T06:42:45;21.67;;;16.63;;
59127;SDS011;44912;52.754;5.994;2023-09-18T06:45:11;24.90;;;18.17;;
59127;SDS011;44912;52.754;5.994;2023-09-18T06:47:37;27.73;;;19.65;;
59127;SDS011;44912;52.754;5.994;2023-09-18T06:50:06;27.80;;;19.25;;
59127;SDS011;44912;52.754;5.994;2023-09-18T06:52:31;24.35;;;18.10;;
59127;SDS011;44912;52.754;5.994;2023-09-18T06:54:57;22.63;;;17.90;;
59127;SDS011;44912;52.754;5.994;2023-09-18T06:57:23;22.48;;;18.25;;
59127;SDS011;44912;52.754;5.994;2023-09-18T06:59:49;23.23;;;17.65;;
59127;SDS011;44912;52.754;5.994;2023-09-18T07:02:14;23.75;;;17.98;;
59127;SDS011;44912;52.754;5.994;2023-09-18T07:04:41;23.50;;;17.80;;
59127;SDS011;44912;52.754;5.994;2023-09-18T07:07:10;24.17;;;17.88;;
59127;SDS011;44912;52.754;5.994;2023-09-18T07:09:37;21.17;;;17.33;;
59127;SDS011;44912;52.754;5.994;2023-09-18T07:12:03;24.65;;;17.70;;
59127;SDS011;44912;52.754;5.994;2023-09-18T07:14:29;22.30;;;18.00;;
59127;SDS011;44912;52.754;5.994;2023-09-18T07:16:55;21.42;;;17.77;;
59127;SDS011;44912;52.754;5.994;2023-09-18T07:19:21;25.90;;;18.25;;
59127;SDS011;44912;52.754;5.994;2023-09-18T07:21:47;22.55;;;17.63;;
59127;SDS011;44912;52.754;5.994;2023-09-18T07:24:12;21.77;;;16.80;;
59127;SDS011;44912;52.754;5.994;2023-09-18T07:26:42;19.70;;;14.98;;
59127;SDS011;44912;52.754;5.994;2023-09-18T07:29:12;19.00;;;13.77;;
59127;SDS011;44912;52.754;5.994;2023-09-18T07:31:41;18.88;;;14.02;;
59127;SDS011;44912;52.754;5.994;2023-09-18T07:34:08;19.30;;;14.30;;
59127;SDS011;44912;52.754;5.994;2023-09-18T07:36:34;20.83;;;14.75;;
59127;SDS011;44912;52.754;5.994;2023-09-18T07:39:00;19.90;;;14.18;;
59127;SDS011;44912;52.754;5.994;2023-09-18T07:41:26;19.30;;;13.48;;
59127;SDS011;44912;52.754;5.994;2023-09-18T07:43:51;19.45;;;14.00;;
59127;SDS011;44912;52.754;5.994;2023-09-18T07:46:17;19.50;;;13.68;;
59127;SDS011;44912;52.754;5.994;2023-09-18T07:48:43;18.10;;;13.05;;
59127;SDS011;44912;52.754;5.994;2023-09-18T07:51:12;16.08;;;12.27;;
59127;SDS011;44912;52.754;5.994;2023-09-18T07:53:38;15.90;;;11.00;;
59127;SDS011;44912;52.754;5.994;2023-09-18T07:56:04;12.10;;;8.27;;
59127;SDS011;44912;52.754;5.994;2023-09-18T07:58:30;14.32;;;7.88;;
59127;SDS011;44912;52.754;5.994;2023-09-18T08:00:56;11.02;;;6.35;;
59127;SDS011;44912;52.754;5.994;2023-09-18T08:03:24;9.85;;;6.00;;
59127;SDS011;44912;52.754;5.994;2023-09-18T08:05:51;9.95;;;6.28;;
59127;SDS011;44912;52.754;5.994;2023-09-18T08:08:18;12.90;;;6.78;;
59127;SDS011;44912;52.754;5.994;2023-09-18T08:10:48;11.45;;;6.90;;
59127;SDS011;44912;52.754;5.994;2023-09-18T08:13:14;10.10;;;7.30;;
59127;SDS011;44912;52.754;5.994;2023-09-18T08:15:40;11.48;;;7.47;;
59127;SDS011;44912;52.754;5.994;2023-09-18T08:18:06;12.65;;;7.70;;
59127;SDS011;44912;52.754;5.994;2023-09-18T08:20:31;10.80;;;7.53;;
59127;SDS011;44912;52.754;5.994;2023-09-18T08:22:58;11.43;;;7.40;;
59127;SDS011;44912;52.754;5.994;2023-09-18T08:25:26;14.93;;;8.45;;
59127;SDS011;44912;52.754;5.994;2023-09-18T08:27:52;13.88;;;9.07;;
59127;SDS011;44912;52.754;5.994;2023-09-18T08:30:17;13.13;;;8.90;;
59127;SDS011;44912;52.754;5.994;2023-09-18T08:32:46;13.88;;;8.98;;
59127;SDS011;44912;52.754;5.994;2023-09-18T08:35:12;13.48;;;9.80;;
59127;SDS011;44912;52.754;5.994;2023-09-18T08:37:40;12.75;;;9.95;;
59127;SDS011;44912;52.754;5.994;2023-09-18T08:40:07;13.68;;;10.32;;
59127;SDS011;44912;52.754;5.994;2023-09-18T08:42:35;13.98;;;10.25;;
59127;SDS011;44912;52.754;5.994;2023-09-18T08:45:05;15.18;;;10.95;;
59127;SDS011;44912;52.754;5.994;2023-09-18T08:47:34;15.40;;;10.68;;
59127;SDS011;44912;52.754;5.994;2023-09-18T08:50:00;14.40;;;10.43;;
59127;SDS011;44912;52.754;5.994;2023-09-18T08:52:27;13.70;;;10.27;;
59127;SDS011;44912;52.754;5.994;2023-09-18T08:54:53;13.35;;;10.88;;
59127;SDS011;44912;52.754;5.994;2023-09-18T08:57:21;13.85;;;11.23;;
59127;SDS011;44912;52.754;5.994;2023-09-18T08:59:48;14.75;;;10.32;;
59127;SDS011;44912;52.754;5.994;2023-09-18T09:02:15;14.65;;;12.18;;
59127;SDS011;44912;52.754;5.994;2023-09-18T09:04:41;14.57;;;11.80;;
59127;SDS011;44912;52.754;5.994;2023-09-18T09:07:06;17.35;;;12.75;;
59127;SDS011;44912;52.754;5.994;2023-09-18T09:09:32;17.15;;;12.68;;
59127;SDS011;44912;52.754;5.994;2023-09-18T09:11:58;19.40;;;13.60;;
59127;SDS011;44912;52.754;5.994;2023-09-18T09:14:24;16.88;;;13.15;;
59127;SDS011;44912;52.754;5.994;2023-09-18T09:16:56;16.63;;;14.20;;
59127;SDS011;44912;52.754;5.994;2023-09-18T09:19:29;18.02;;;13.73;;
59127;SDS011;44912;52.754;5.994;2023-09-18T09:21:56;15.25;;;13.13;;
59127;SDS011;44912;52.754;5.994;2023-09-18T09:27:08;15.02;;;13.38;;
59127;SDS011;44912;52.754;5.994;2023-09-18T09:29:34;14.98;;;12.93;;
59127;SDS011;44912;52.754;5.994;2023-09-18T09:32:14;15.63;;;12.43;;
59127;SDS011;44912;52.754;5.994;2023-09-18T09:34:41;15.35;;;12.38;;
59127;SDS011;44912;52.754;5.994;2023-09-18T09:37:08;14.02;;;11.82;;
59127;SDS011;44912;52.754;5.994;2023-09-18T09:39:34;14.32;;;11.55;;
59127;SDS011;44912;52.754;5.994;2023-09-18T09:42:02;13.65;;;12.00;;
59127;SDS011;44912;52.754;5.994;2023-09-18T09:44:32;15.23;;;11.80;;
59127;SDS011;44912;52.754;5.994;2023-09-18T09:46:59;14.35;;;11.60;;
59127;SDS011;44912;52.754;5.994;2023-09-18T09:49:25;13.30;;;11.88;;
59127;SDS011;44912;52.754;5.994;2023-09-18T09:51:53;13.95;;;11.77;;
59127;SDS011;44912;52.754;5.994;2023-09-18T09:54:32;15.25;;;12.30;;
59127;SDS011;44912;52.754;5.994;2023-09-18T09:57:05;14.20;;;10.63;;
59127;SDS011;44912;52.754;5.994;2023-09-18T09:59:31;14.02;;;10.90;;
59127;SDS011;44912;52.754;5.994;2023-09-18T10:02:00;12.18;;;9.77;;
59127;SDS011;44912;52.754;5.994;2023-09-18T10:04:25;12.35;;;9.95;;
59127;SDS011;44912;52.754;5.994;2023-09-18T10:06:57;13.57;;;9.80;;
59127;SDS011;44912;52.754;5.994;2023-09-18T10:09:37;12.57;;;8.30;;
59127;SDS011;44912;52.754;5.994;2023-09-18T10:12:10;12.45;;;8.88;;
59127;SDS011;44912;52.754;5.994;2023-09-18T10:14:37;11.20;;;8.05;;
59127;SDS011;44912;52.754;5.994;2023-09-18T10:17:06;10.23;;;7.45;;
59127;SDS011;44912;52.754;5.994;2023-09-18T10:20:01;10.43;;;7.32;;
59127;SDS011;44912;52.754;5.994;2023-09-18T10:22:39;9.05;;;6.72;;
59127;SDS011;44912;52.754;5.994;2023-09-18T10:25:11;9.95;;;6.82;;
59127;SDS011;44912;52.754;5.994;2023-09-18T10:27:43;8.48;;;6.10;;
59127;SDS011;44912;52.754;5.994;2023-09-18T10:30:11;10.63;;;6.45;;
59127;SDS011;44912;52.754;5.994;2023-09-18T10:32:39;9.85;;;7.43;;
59127;SDS011;44912;52.754;5.994;2023-09-18T10:35:06;9.98;;;6.78;;
59127;SDS011;44912;52.754;5.994;2023-09-18T10:37:33;10.85;;;6.82;;
59127;SDS011;44912;52.754;5.994;2023-09-18T10:40:00;9.85;;;7.18;;
59127;SDS011;44912;52.754;5.994;2023-09-18T10:42:27;9.85;;;6.38;;
59127;SDS011;44912;52.754;5.994;2023-09-18T10:44:55;7.53;;;5.38;;
59127;SDS011;44912;52.754;5.994;2023-09-18T10:47:21;8.52;;;4.95;;
59127;SDS011;44912;52.754;5.994;2023-09-18T10:49:48;9.65;;;5.72;;
59127;SDS011;44912;52.754;5.994;2023-09-18T10:52:15;8.27;;;5.30;;
59127;SDS011;44912;52.754;5.994;2023-09-18T10:54:41;8.10;;;5.35;;
59127;SDS011;44912;52.754;5.994;2023-09-18T10:57:06;9.45;;;5.72;;
59127;SDS011;44912;52.754;5.994;2023-09-18T10:59:32;11.30;;;6.18;;
59127;SDS011;44912;52.754;5.994;2023-09-18T11:02:04;10.02;;;6.03;;
59127;SDS011;44912;52.754;5.994;2023-09-18T11:04:32;14.23;;;7.00;;
59127;SDS011;44912;52.754;5.994;2023-09-18T11:09:25;10.60;;;6.40;;
59127;SDS011;44912;52.754;5.994;2023-09-18T11:14:22;8.70;;;5.55;;
59127;SDS011;44912;52.754;5.994;2023-09-18T11:16:49;9.93;;;6.20;;
59127;SDS011;44912;52.754;5.994;2023-09-18T11:19:18;8.50;;;5.30;;
59127;SDS011;44912;52.754;5.994;2023-09-18T11:21:44;9.05;;;5.25;;
59127;SDS011;44912;52.754;5.994;2023-09-18T11:24:17;9.82;;;5.38;;
59127;SDS011;44912;52.754;5.994;2023-09-18T11:26:48;10.20;;;5.15;;
59127;SDS011;44912;52.754;5.994;2023-09-18T11:29:17;7.43;;;4.80;;
59127;SDS011;44912;52.754;5.994;2023-09-18T11:31:51;8.40;;;4.93;;
59127;SDS011;44912;52.754;5.994;2023-09-18T11:34:32;9.35;;;4.53;;
59127;SDS011;44912;52.754;5.994;2023-09-18T11:37:01;9.85;;;5.03;;
59127;SDS011;44912;52.754;5.994;2023-09-18T11:39:33;7.55;;;4.70;;
59127;SDS011;44912;52.754;5.994;2023-09-18T11:42:20;7.47;;;4.40;;
59127;SDS011;44912;52.754;5.994;2023-09-18T11:44:51;8.40;;;4.60;;
59127;SDS011;44912;52.754;5.994;2023-09-18T11:47:23;8.63;;;4.07;;
59127;SDS011;44912;52.754;5.994;2023-09-18T11:49:50;8.10;;;4.47;;
59127;SDS011;44912;52.754;5.994;2023-09-18T11:52:21;7.07;;;4.18;;
59127;SDS011;44912;52.754;5.994;2023-09-18T11:54:48;8.20;;;4.22;;
59127;SDS011;44912;52.754;5.994;2023-09-18T11:57:14;8.30;;;4.90;;
59127;SDS011;44912;52.754;5.994;2023-09-18T11:59:43;8.20;;;5.25;;
59127;SDS011;44912;52.754;5.994;2023-09-18T12:02:11;9.23;;;5.03;;
59127;SDS011;44912;52.754;5.994;2023-09-18T12:04:45;10.15;;;5.38;;
59127;SDS011;44912;52.754;5.994;2023-09-18T12:07:12;7.57;;;4.18;;
59127;SDS011;44912;52.754;5.994;2023-09-18T12:09:38;9.07;;;4.53;;
59127;SDS011;44912;52.754;5.994;2023-09-18T12:12:07;7.00;;;4.43;;
59127;SDS011;44912;52.754;5.994;2023-09-18T12:14:34;9.63;;;4.72;;
59127;SDS011;44912;52.754;5.994;2023-09-18T12:17:00;7.15;;;4.95;;
59127;SDS011;44912;52.754;5.994;2023-09-18T12:19:28;9.27;;;4.18;;
59127;SDS011;44912;52.754;5.994;2023-09-18T12:21:54;9.65;;;5.32;;
59127;SDS011;44912;52.754;5.994;2023-09-18T12:24:23;9.30;;;5.10;;
59127;SDS011;44912;52.754;5.994;2023-09-18T12:26:50;9.25;;;4.78;;
59127;SDS011;44912;52.754;5.994;2023-09-18T12:29:17;9.25;;;4.68;;
59127;SDS011;44912;52.754;5.994;2023-09-18T12:31:43;7.90;;;5.07;;
59127;SDS011;44912;52.754;5.994;2023-09-18T12:34:18;7.85;;;4.90;;
59127;SDS011;44912;52.754;5.994;2023-09-18T12:36:46;9.57;;;5.00;;
59127;SDS011;44912;52.754;5.994;2023-09-18T12:39:13;7.03;;;4.53;;
59127;SDS011;44912;52.754;5.994;2023-09-18T12:41:41;8.00;;;4.70;;
59127;SDS011;44912;52.754;5.994;2023-09-18T12:44:10;10.48;;;4.90;;
59127;SDS011;44912;52.754;5.994;2023-09-18T12:46:37;8.27;;;4.93;;
59127;SDS011;44912;52.754;5.994;2023-09-18T12:49:19;9.85;;;4.90;;
59127;SDS011;44912;52.754;5.994;2023-09-18T12:51:58;9.10;;;5.07;;
59127;SDS011;44912;52.754;5.994;2023-09-18T12:54:40;8.45;;;4.82;;
59127;SDS011;44912;52.754;5.994;2023-09-18T12:57:10;10.75;;;5.40;;
59127;SDS011;44912;52.754;5.994;2023-09-18T12:59:40;10.65;;;5.35;;
59127;SDS011;44912;52.754;5.994;2023-09-18T13:02:05;10.90;;;5.10;;
59127;SDS011;44912;52.754;5.994;2023-09-18T13:04:32;9.48;;;4.15;;
59127;SDS011;44912;52.754;5.994;2023-09-18T13:07:12;9.38;;;4.70;;
59127;SDS011;44912;52.754;5.994;2023-09-18T13:09:39;7.28;;;4.35;;
59127;SDS011;44912;52.754;5.994;2023-09-18T13:12:05;8.35;;;5.00;;
59127;SDS011;44912;52.754;5.994;2023-09-18T13:17:38;7.25;;;4.30;;
59127;SDS011;44912;52.754;5.994;2023-09-18T13:20:11;7.80;;;4.13;;
59127;SDS011;44912;52.754;5.994;2023-09-18T13:22:38;8.10;;;4.40;;
59127;SDS011;44912;52.754;5.994;2023-09-18T13:25:05;8.00;;;4.32;;
59127;SDS011;44912;52.754;5.994;2023-09-18T13:27:32;8.55;;;4.15;;
59127;SDS011;44912;52.754;5.994;2023-09-18T13:29:58;7.75;;;4.13;;
59127;SDS011;44912;52.754;5.994;2023-09-18T13:32:31;7.10;;;4.25;;
59127;SDS011;44912;52.754;5.994;2023-09-18T13:35:02;7.20;;;3.83;;
59127;SDS011;44912;52.754;5.994;2023-09-18T13:37:30;6.32;;;3.67;;
59127;SDS011;44912;52.754;5.994;2023-09-18T13:39:59;10.10;;;4.00;;
59127;SDS011;44912;52.754;5.994;2023-09-18T13:42:31;9.52;;;3.92;;
59127;SDS011;44912;52.754;5.994;2023-09-18T13:44:57;9.00;;;4.53;;
59127;SDS011;44912;52.754;5.994;2023-09-18T13:47:25;6.68;;;4.05;;
59127;SDS011;44912;52.754;5.994;2023-09-18T13:49:54;11.77;;;5.28;;
59127;SDS011;44912;52.754;5.994;2023-09-18T13:52:24;9.07;;;4.70;;
59127;SDS011;44912;52.754;5.994;2023-09-18T13:54:58;10.20;;;4.72;;
59127;SDS011;44912;52.754;5.994;2023-09-18T13:57:24;7.05;;;4.50;;
59127;SDS011;44912;52.754;5.994;2023-09-18T13:59:50;9.10;;;4.43;;
59127;SDS011;44912;52.754;5.994;2023-09-18T14:02:16;9.95;;;4.72;;
59127;SDS011;44912;52.754;5.994;2023-09-18T14:04:43;9.55;;;4.85;;
59127;SDS011;44912;52.754;5.994;2023-09-18T14:07:09;8.40;;;4.80;;
59127;SDS011;44912;52.754;5.994;2023-09-18T14:09:36;9.27;;;5.10;;
59127;SDS011;44912;52.754;5.994;2023-09-18T14:12:02;6.88;;;3.63;;
59127;SDS011;44912;52.754;5.994;2023-09-18T14:14:28;7.68;;;3.60;;
59127;SDS011;44912;52.754;5.994;2023-09-18T14:16:54;7.38;;;3.80;;
59127;SDS011;44912;52.754;5.994;2023-09-18T14:19:20;8.00;;;4.10;;
59127;SDS011;44912;52.754;5.994;2023-09-18T14:21:46;6.35;;;3.63;;
59127;SDS011;44912;52.754;5.994;2023-09-18T14:24:14;10.43;;;4.00;;
59127;SDS011;44912;52.754;5.994;2023-09-18T14:26:40;7.50;;;3.40;;
59127;SDS011;44912;52.754;5.994;2023-09-18T14:29:09;7.80;;;3.22;;
59127;SDS011;44912;52.754;5.994;2023-09-18T14:31:38;9.30;;;3.25;;
59127;SDS011;44912;52.754;5.994;2023-09-18T14:34:04;5.72;;;2.65;;
59127;SDS011;44912;52.754;5.994;2023-09-18T14:36:31;4.75;;;2.90;;
59127;SDS011;44912;52.754;5.994;2023-09-18T14:38:58;5.00;;;2.92;;
59127;SDS011;44912;52.754;5.994;2023-09-18T14:41:25;6.28;;;2.80;;
59127;SDS011;44912;52.754;5.994;2023-09-18T14:43:51;6.25;;;2.88;;